createdAt,value
2024-02-14T00:10:59.886Z,16.20
2024-02-14T05:53:53.212Z,15.02
2024-02-14T05:56:21.053Z,16.35
2024-02-14T05:58:48.829Z,17.33
2024-02-14T06:01:16.630Z,17.75
2024-02-14T06:03:44.618Z,16.40
2024-02-14T06:06:12.926Z,20.10
2024-02-14T06:08:40.745Z,18.83
2024-02-14T06:11:08.551Z,18.55
2024-02-14T06:13:37.470Z,17.85
2024-02-14T06:16:06.487Z,21.40
2024-02-14T06:18:34.330Z,24.05
2024-02-14T06:21:02.218Z,22.58
2024-02-14T06:23:30.021Z,20.10
2024-02-14T06:25:57.959Z,22.02
2024-02-14T06:28:25.834Z,20.83
2024-02-14T06:30:53.619Z,19.90
2024-02-14T06:33:21.540Z,22.90
2024-02-14T06:35:50.032Z,19.17
2024-02-14T06:38:18.013Z,19.88
2024-02-14T06:40:45.736Z,18.92
2024-02-14T06:43:13.911Z,22.25
2024-02-14T06:45:42.120Z,18.92
2024-02-14T06:48:25.440Z,21.13
2024-02-14T06:50:53.408Z,19.27
2024-02-14T06:53:21.183Z,17.77
2024-02-14T06:55:48.913Z,16.50
2024-02-14T06:58:16.694Z,17.02
2024-02-14T07:00:45.677Z,15.98
2024-02-14T07:03:13.545Z,16.17
2024-02-14T07:05:41.427Z,17.95
2024-02-14T07:08:11.774Z,20.60
2024-02-14T07:10:39.513Z,16.65
2024-02-14T07:13:07.272Z,18.27
2024-02-14T07:15:35.170Z,18.33
2024-02-14T07:18:03.516Z,14.88
2024-02-14T07:20:31.571Z,16.60
2024-02-14T07:22:59.409Z,21.58
2024-02-14T07:25:27.515Z,19.35
2024-02-14T07:27:55.329Z,16.98
2024-02-14T07:30:23.215Z,22.63
2024-02-14T07:32:52.456Z,19.50
2024-02-14T07:35:20.569Z,18.95
2024-02-14T07:37:49.727Z,18.73
2024-02-14T07:40:18.667Z,21.55
2024-02-14T07:43:05.335Z,22.15
2024-02-14T07:45:33.180Z,20.75
2024-02-14T07:48:01.085Z,19.15
2024-02-14T07:50:29.772Z,23.00
2024-02-14T07:52:57.696Z,20.92
2024-02-14T07:55:25.775Z,23.30
2024-02-14T07:57:54.076Z,20.52
2024-02-14T08:00:25.094Z,19.15
2024-02-14T08:02:53.293Z,23.00
2024-02-14T08:05:21.410Z,23.08
2024-02-14T08:07:49.792Z,21.55
2024-02-14T08:10:17.973Z,21.42
2024-02-14T08:12:46.200Z,19.13
2024-02-14T08:15:14.797Z,26.52
2024-02-14T08:17:46.592Z,25.50
2024-02-14T08:20:15.396Z,31.17
2024-02-14T08:23:03.790Z,22.33
2024-02-14T08:25:37.547Z,21.33
2024-02-14T08:28:05.614Z,17.13
2024-02-14T08:30:33.424Z,21.67
2024-02-14T08:33:03.515Z,18.98
2024-02-14T08:35:35.115Z,21.38
2024-02-14T08:38:03.005Z,20.75
2024-02-14T08:40:31.376Z,21.70
2024-02-14T08:43:00.412Z,25.83
2024-02-14T08:45:31.189Z,21.27
2024-02-14T08:47:59.656Z,23.70
2024-02-14T08:50:27.416Z,20.48
2024-02-14T08:52:55.208Z,20.08
2024-02-14T08:55:23.009Z,22.50
2024-02-14T08:57:50.847Z,25.63
2024-02-14T09:00:23.752Z,19.88
2024-02-14T09:02:52.030Z,19.67
2024-02-14T09:05:20.304Z,25.33
2024-02-14T09:07:48.458Z,20.55
2024-02-14T09:10:17.025Z,18.48
2024-02-14T09:12:45.316Z,27.27
2024-02-14T09:15:15.815Z,22.15
2024-02-14T09:17:44.193Z,22.83
2024-02-14T09:20:15.920Z,24.48
2024-02-14T09:22:44.026Z,22.05
2024-02-14T09:25:11.985Z,22.75
2024-02-14T09:27:39.838Z,22.88
2024-02-14T09:30:09.061Z,21.08
2024-02-14T09:32:40.668Z,28.45
2024-02-14T09:35:08.749Z,26.65
2024-02-14T09:37:39.702Z,23.50
2024-02-14T09:40:08.790Z,23.58
2024-02-14T09:42:45.027Z,26.15
2024-02-14T09:45:17.071Z,22.42
2024-02-14T09:47:47.787Z,22.45
2024-02-14T09:50:16.240Z,21.98
2024-02-14T09:52:46.251Z,21.17
2024-02-14T09:55:14.122Z,22.08
2024-02-14T09:57:43.964Z,21.95
2024-02-14T10:00:12.765Z,19.08
2024-02-14T10:02:40.635Z,15.68
2024-02-14T10:05:09.213Z,16.17
2024-02-14T10:07:44.742Z,29.65
2024-02-14T10:10:13.064Z,14.30
2024-02-14T10:12:42.403Z,16.13
2024-02-14T10:15:10.674Z,17.23
2024-02-14T10:17:41.945Z,16.33
2024-02-14T10:20:11.053Z,13.63
2024-02-14T10:22:40.054Z,13.52
2024-02-14T10:25:11.597Z,15.25
2024-02-14T10:27:43.003Z,13.25
2024-02-14T10:30:11.782Z,14.02
2024-02-14T10:32:49.194Z,13.00
2024-02-14T10:35:18.364Z,15.20
2024-02-14T10:37:49.396Z,13.85
2024-02-14T10:40:17.368Z,12.88
2024-02-14T10:42:45.630Z,16.23
2024-02-14T10:45:13.532Z,13.20
2024-02-14T10:47:53.136Z,13.57
2024-02-14T10:50:24.426Z,12.93
2024-02-14T10:52:58.265Z,13.33
2024-02-14T10:55:29.760Z,14.05
2024-02-14T10:57:59.000Z,15.43
2024-02-14T11:00:28.163Z,14.90
2024-02-14T11:02:57.145Z,16.08
2024-02-14T11:05:26.809Z,15.32
2024-02-14T11:07:54.652Z,13.90
2024-02-14T11:10:23.700Z,15.15
2024-02-14T11:12:52.359Z,14.73
2024-02-14T11:15:32.077Z,14.23
2024-02-14T11:18:08.784Z,14.90
2024-02-14T11:20:37.644Z,13.40
2024-02-14T11:23:07.658Z,21.70
2024-02-14T11:25:35.846Z,14.88
2024-02-14T11:28:18.701Z,11.60
2024-02-14T11:30:47.100Z,14.75
2024-02-14T11:33:25.723Z,12.90
2024-02-14T11:35:56.796Z,14.32
2024-02-14T11:38:28.084Z,13.13
2024-02-14T11:40:58.235Z,13.82
2024-02-14T11:43:26.710Z,16.55
2024-02-14T11:45:55.085Z,14.90
2024-02-14T11:48:26.258Z,14.10
2024-02-14T11:50:55.563Z,15.13
2024-02-14T11:53:23.561Z,17.33
2024-02-14T11:55:51.588Z,14.10
2024-02-14T11:58:19.555Z,17.48
2024-02-14T12:00:50.253Z,15.27
2024-02-14T12:03:25.379Z,17.55
2024-02-14T12:05:55.086Z,15.63
2024-02-14T12:08:23.642Z,14.05
2024-02-14T12:10:51.697Z,14.75
2024-02-14T12:13:23.141Z,15.38
2024-02-14T12:15:53.073Z,15.80
2024-02-14T12:18:22.898Z,15.93
2024-02-14T12:20:55.606Z,14.68
2024-02-14T12:23:28.004Z,15.93
2024-02-14T12:26:03.269Z,17.10
2024-02-14T12:28:32.953Z,18.17
2024-02-14T12:31:00.818Z,14.68
2024-02-14T12:33:29.273Z,16.27
2024-02-14T12:35:59.007Z,15.55
2024-02-14T12:38:26.789Z,16.15
2024-02-14T12:40:57.276Z,16.10
2024-02-14T12:43:25.042Z,17.77
2024-02-14T12:45:53.253Z,16.50
2024-02-14T12:48:28.376Z,15.70
2024-02-14T12:50:57.633Z,16.58
2024-02-14T12:53:25.763Z,16.40
2024-02-14T12:55:54.308Z,17.38
2024-02-14T12:58:22.172Z,18.67
2024-02-14T13:00:51.700Z,17.75
2024-02-14T13:03:20.776Z,17.15
2024-02-14T13:05:49.015Z,17.92
2024-02-14T13:08:18.190Z,18.77
2024-02-14T13:10:46.305Z,19.45
2024-02-14T13:13:15.880Z,19.38
2024-02-14T13:15:45.426Z,18.92
2024-02-14T13:18:15.376Z,19.88
2024-02-14T13:20:45.944Z,18.23
2024-02-14T13:23:15.942Z,18.42
2024-02-14T13:25:43.971Z,26.92
2024-02-14T13:28:11.686Z,17.85
2024-02-14T13:30:39.427Z,21.02
2024-02-14T13:33:07.412Z,21.80
2024-02-14T13:35:39.731Z,20.02
2024-02-14T13:38:07.915Z,20.27
2024-02-14T13:40:35.809Z,21.63
2024-02-14T13:43:04.796Z,22.60
2024-02-14T13:45:43.671Z,21.55
2024-02-14T13:48:13.704Z,20.85
2024-02-14T13:50:42.877Z,21.77
2024-02-14T13:53:11.201Z,21.50
2024-02-14T13:55:40.463Z,23.48
2024-02-14T13:58:12.773Z,21.67
2024-02-14T14:00:40.612Z,20.13
2024-02-14T14:03:08.817Z,22.42
2024-02-14T14:05:36.846Z,22.13
2024-02-14T14:08:05.017Z,26.65
2024-02-14T14:10:32.747Z,22.20
2024-02-14T14:13:01.368Z,24.35
2024-02-14T14:15:30.465Z,22.00
2024-02-14T14:17:58.908Z,27.70
2024-02-14T14:20:26.870Z,24.67
2024-02-14T14:22:54.652Z,23.42
2024-02-14T14:25:22.487Z,25.85
2024-02-14T14:27:50.280Z,24.60
2024-02-14T14:30:18.237Z,27.40
2024-02-14T14:32:46.126Z,24.90
2024-02-14T14:35:14.079Z,23.02
2024-02-14T14:37:42.011Z,24.70
2024-02-14T14:40:11.980Z,23.90
2024-02-14T14:42:40.847Z,23.45
2024-02-14T14:45:08.971Z,24.90
2024-02-14T14:47:37.520Z,25.40
2024-02-14T14:50:09.666Z,25.63
2024-02-14T14:52:39.396Z,21.70
2024-02-14T14:55:07.352Z,27.23
2024-02-14T14:57:41.455Z,26.70
2024-02-14T15:00:13.318Z,24.88
2024-02-14T15:02:42.753Z,28.40
2024-02-14T15:05:12.298Z,26.23
2024-02-14T15:07:40.686Z,24.35
2024-02-14T15:10:11.743Z,24.02
2024-02-14T15:12:39.878Z,24.17
2024-02-14T15:15:08.331Z,26.33
2024-02-14T15:17:36.470Z,25.00
2024-02-14T15:20:05.198Z,25.85
2024-02-14T15:22:33.177Z,26.05
2024-02-14T15:25:01.091Z,24.05
2024-02-14T15:27:31.580Z,26.20
2024-02-14T15:30:18.176Z,26.77
2024-02-14T15:33:04.661Z,26.40
2024-02-14T15:35:32.543Z,25.70
2024-02-14T15:38:01.370Z,27.20
2024-02-14T15:40:29.144Z,27.50
2024-02-14T15:42:56.972Z,24.60
2024-02-14T15:45:24.901Z,26.38
2024-02-14T15:47:52.773Z,27.20
2024-02-14T15:50:20.645Z,29.13
2024-02-14T15:52:48.354Z,26.73
2024-02-14T15:55:16.245Z,30.73
2024-02-14T15:57:44.338Z,28.83
2024-02-14T16:00:13.221Z,26.65
2024-02-14T16:02:41.654Z,28.15
2024-02-14T16:05:12.830Z,29.20
2024-02-14T16:07:40.913Z,28.08
2024-02-14T16:10:09.214Z,27.55
2024-02-14T16:12:36.994Z,31.40
2024-02-14T16:15:05.234Z,31.98
2024-02-14T16:17:33.063Z,31.80
2024-02-14T16:20:01.092Z,34.40
2024-02-14T16:22:28.949Z,31.95
2024-02-14T16:24:56.722Z,31.55
2024-02-14T16:27:24.940Z,31.38
2024-02-14T16:29:53.022Z,32.40
2024-02-14T16:32:21.006Z,32.22
2024-02-14T16:34:51.850Z,30.27
2024-02-14T16:37:20.759Z,34.60
2024-02-14T16:39:52.618Z,29.95
2024-02-14T16:42:21.333Z,29.88
2024-02-14T16:44:49.834Z,31.98
2024-02-14T16:47:17.708Z,33.05
2024-02-14T16:49:45.673Z,35.15
2024-02-14T16:52:23.199Z,35.70
2024-02-14T16:54:51.604Z,32.45
2024-02-14T16:57:20.901Z,33.25
2024-02-14T16:59:50.000Z,32.50
2024-02-14T17:02:18.497Z,31.95
2024-02-14T17:04:46.307Z,33.80
2024-02-14T17:07:16.647Z,37.13
2024-02-14T17:09:45.368Z,31.88
2024-02-14T17:12:13.563Z,34.67
2024-02-14T17:14:43.815Z,50.17
2024-02-14T17:17:12.656Z,39.13
2024-02-14T17:19:40.496Z,42.20
2024-02-14T17:22:17.814Z,34.72
2024-02-14T17:24:57.006Z,45.00
2024-02-14T17:27:25.717Z,39.05
2024-02-14T17:29:54.968Z,36.58
2024-02-14T17:32:32.503Z,36.17
2024-02-14T17:35:07.882Z,35.58
2024-02-14T17:37:39.066Z,42.00
2024-02-14T17:40:09.640Z,40.20
2024-02-14T17:42:37.868Z,39.22
2024-02-14T17:45:10.335Z,39.50
2024-02-14T17:47:39.684Z,41.17
2024-02-14T17:50:08.153Z,35.97
2024-02-14T17:52:38.990Z,38.35
2024-02-14T17:55:07.757Z,38.13
2024-02-14T17:57:35.669Z,41.25
2024-02-14T18:00:04.504Z,39.53
2024-02-14T18:02:40.743Z,35.72
2024-02-14T18:05:09.455Z,34.78
2024-02-14T18:07:37.409Z,41.95
2024-02-14T18:10:05.864Z,38.80
2024-02-14T18:12:33.947Z,39.90
2024-02-14T18:15:01.903Z,39.92
2024-02-14T18:17:30.094Z,42.17
2024-02-14T18:19:57.975Z,43.08
2024-02-14T18:22:25.996Z,49.08
2024-02-14T18:24:53.867Z,53.20
2024-02-14T18:27:23.729Z,40.95
2024-02-14T18:29:51.558Z,40.88
2024-02-14T18:32:19.670Z,43.13
2024-02-14T18:34:47.564Z,51.35
2024-02-14T18:37:15.555Z,52.10
2024-02-14T18:39:43.311Z,45.97
2024-02-14T18:42:11.074Z,45.35
2024-02-14T18:44:39.080Z,43.33
2024-02-14T18:47:06.840Z,40.63
2024-02-14T18:49:35.087Z,38.80
2024-02-14T18:52:04.282Z,37.05
2024-02-14T18:54:34.036Z,35.10
2024-02-14T18:57:04.653Z,45.22
2024-02-14T18:59:35.748Z,42.55
2024-02-14T19:02:05.763Z,40.97
2024-02-14T19:04:34.391Z,42.10
2024-02-14T19:07:02.723Z,45.53
2024-02-14T19:09:32.904Z,39.63
2024-02-14T19:12:00.974Z,46.47
2024-02-14T19:14:29.322Z,38.90
2024-02-14T19:16:57.623Z,37.92
2024-02-14T19:19:26.841Z,42.63
2024-02-14T19:21:54.815Z,37.78
2024-02-14T19:24:23.364Z,38.17
2024-02-14T19:26:51.550Z,40.28
2024-02-14T19:29:20.407Z,41.20
2024-02-14T19:31:48.171Z,34.55
2024-02-14T19:34:16.104Z,39.08
2024-02-14T19:36:43.925Z,41.33
2024-02-14T19:39:14.513Z,38.75
2024-02-14T19:41:42.358Z,38.60
2024-02-14T19:44:10.446Z,44.42
2024-02-14T19:46:38.429Z,45.15
2024-02-14T19:49:07.414Z,40.08
2024-02-14T19:51:35.328Z,44.33
2024-02-14T19:54:03.508Z,42.08
2024-02-14T19:56:31.372Z,41.65
2024-02-14T19:58:59.143Z,41.65
2024-02-14T20:01:27.091Z,43.97
2024-02-14T20:03:58.196Z,45.00
2024-02-14T20:06:26.443Z,39.67
2024-02-14T20:08:58.734Z,37.38
2024-02-14T20:13:56.269Z,37.85
2024-02-14T20:16:24.128Z,39.95
2024-02-14T20:18:52.303Z,35.92
2024-02-14T20:21:20.247Z,43.08
2024-02-14T20:23:48.053Z,38.50
2024-02-14T20:26:17.735Z,41.95
2024-02-14T20:28:46.327Z,37.00
2024-02-14T20:31:14.219Z,41.05
2024-02-14T20:33:43.057Z,34.50
2024-02-14T20:36:11.104Z,31.38
2024-02-14T20:38:40.103Z,35.70
2024-02-14T20:41:09.246Z,40.88
2024-02-14T20:43:37.775Z,35.05
2024-02-14T20:46:06.697Z,40.47
2024-02-14T20:48:34.550Z,37.72
2024-02-14T20:51:02.579Z,40.33
2024-02-14T20:53:31.447Z,37.78
2024-02-14T20:55:59.628Z,36.10
2024-02-14T20:58:27.536Z,38.20
2024-02-14T21:00:55.400Z,35.80
2024-02-14T21:03:23.208Z,32.88
2024-02-14T21:05:51.401Z,37.25
2024-02-14T21:08:19.327Z,35.22
2024-02-14T21:10:47.175Z,34.28
2024-02-14T21:13:15.350Z,33.70
2024-02-14T21:15:44.296Z,35.20
2024-02-14T21:18:12.453Z,33.58
2024-02-14T21:20:40.336Z,37.97
2024-02-14T21:23:08.402Z,35.08
2024-02-14T21:25:37.359Z,33.78
2024-02-14T21:28:06.039Z,35.72
2024-02-14T21:30:34.293Z,36.70
2024-02-14T21:33:02.334Z,33.10
2024-02-14T21:35:30.871Z,39.33
2024-02-14T21:37:58.931Z,36.15
2024-02-14T21:40:26.747Z,36.40
2024-02-14T21:42:54.573Z,36.17
2024-02-14T21:45:22.887Z,35.90
2024-02-14T21:47:51.195Z,36.55
2024-02-14T21:50:20.088Z,36.15
2024-02-14T21:52:48.436Z,37.60
2024-02-14T21:55:16.208Z,39.92
2024-02-14T21:57:44.174Z,37.97
2024-02-14T22:00:14.019Z,40.25
2024-02-14T22:02:41.983Z,36.75
2024-02-14T22:05:09.967Z,36.47
2024-02-14T22:07:38.072Z,35.13
2024-02-14T22:10:08.598Z,34.50
2024-02-14T22:12:38.097Z,32.30
2024-02-14T22:15:06.971Z,35.97
2024-02-14T22:17:34.950Z,35.83
2024-02-14T22:20:02.810Z,33.38
2024-02-14T22:22:30.827Z,33.55
2024-02-14T22:24:58.588Z,35.78
2024-02-14T22:27:26.449Z,31.02
2024-02-14T22:29:54.643Z,31.67
2024-02-14T22:32:22.766Z,34.45
2024-02-14T22:34:50.964Z,34.13
2024-02-14T22:37:18.947Z,37.80
2024-02-14T22:39:46.743Z,38.67
2024-02-14T22:42:15.607Z,34.13
2024-02-14T22:44:45.400Z,37.00
2024-02-14T22:47:13.574Z,34.45
2024-02-14T22:49:43.639Z,35.75
2024-02-14T22:52:11.558Z,32.03
2024-02-14T22:54:39.357Z,38.30
2024-02-14T22:57:09.276Z,37.17
2024-02-14T22:59:37.530Z,34.28
2024-02-14T23:02:06.364Z,37.05
2024-02-14T23:04:35.019Z,32.78
2024-02-14T23:07:03.048Z,36.38
2024-02-14T23:09:30.838Z,31.73
2024-02-14T23:11:58.640Z,37.72
2024-02-14T23:14:27.017Z,36.05
2024-02-14T23:16:54.971Z,35.38
2024-02-14T23:19:22.876Z,35.97
2024-02-14T23:21:50.719Z,36.05
2024-02-14T23:24:18.593Z,34.70
2024-02-14T23:26:46.377Z,34.50
2024-02-14T23:29:14.749Z,35.90
2024-02-14T23:31:43.405Z,38.80
2024-02-14T23:34:11.325Z,33.72
2024-02-14T23:36:39.457Z,38.00
2024-02-14T23:39:07.663Z,40.50
2024-02-14T23:41:36.194Z,37.00
2024-02-14T23:44:04.892Z,37.67
2024-02-14T23:46:32.746Z,37.15
2024-02-14T23:49:00.629Z,37.38
2024-02-14T23:51:30.495Z,36.13
2024-02-14T23:53:59.897Z,34.70
2024-02-14T23:56:28.007Z,35.53
2024-02-14T23:58:55.849Z,34.15
